createdAt,value
2018-09-07T00:04:41.991Z,21.92
2018-09-07T00:09:46.699Z,21.94
2018-09-07T00:14:50.198Z,21.91
2018-09-07T00:19:53.253Z,21.95
2018-09-07T00:24:56.290Z,21.97
2018-09-07T00:29:59.298Z,21.97
2018-09-07T00:35:02.329Z,21.90
2018-09-07T00:40:05.410Z,21.81
2018-09-07T00:45:09.955Z,21.69
2018-09-07T00:50:16.768Z,21.62
2018-09-07T00:55:20.710Z,21.60
2018-09-07T01:00:24.086Z,21.57
2018-09-07T01:05:27.102Z,21.50
2018-09-07T01:10:30.148Z,21.52
2018-09-07T01:15:33.215Z,21.35
2018-09-07T01:20:36.262Z,21.16
2018-09-07T01:25:41.636Z,20.96
2018-09-07T01:30:47.081Z,20.87
2018-09-07T01:35:50.299Z,20.79
2018-09-07T01:40:53.328Z,20.69
2018-09-07T01:45:56.333Z,20.63
2018-09-07T01:50:59.353Z,20.55
2018-09-07T01:56:03.565Z,20.47
2018-09-07T02:01:06.581Z,20.50
2018-09-07T02:06:13.545Z,20.37
2018-09-07T02:11:17.615Z,20.44
2018-09-07T02:16:21.593Z,20.58
2018-09-07T02:21:24.669Z,20.68
2018-09-07T02:26:27.702Z,20.78
2018-09-07T02:31:31.645Z,20.78
2018-09-07T02:36:37.449Z,20.80
2018-09-07T02:41:42.456Z,20.82
2018-09-07T02:46:47.199Z,20.82
2018-09-07T02:51:50.316Z,20.85
2018-09-07T02:56:55.525Z,20.86
2018-09-07T03:01:58.536Z,20.91
2018-09-07T03:07:01.609Z,20.92
2018-09-07T03:12:05.696Z,20.88
2018-09-07T03:17:16.261Z,20.84
2018-09-07T03:22:19.731Z,20.76
2018-09-07T03:27:22.767Z,20.79
2018-09-07T03:32:25.815Z,20.76
2018-09-07T03:37:28.862Z,20.68
2018-09-07T03:42:34.671Z,20.60
2018-09-07T03:47:37.765Z,20.59
2018-09-07T03:52:47.868Z,20.60
2018-09-07T03:57:52.786Z,20.59
2018-09-07T04:02:55.991Z,20.58
2018-09-07T04:07:59.053Z,20.48
2018-09-07T04:13:03.493Z,20.38
2018-09-07T04:18:06.890Z,20.26
2018-09-07T04:23:14.397Z,20.23
2018-09-07T04:28:19.625Z,20.22
2018-09-07T04:33:22.649Z,20.18
2018-09-07T04:38:25.840Z,20.19
2018-09-07T04:43:28.914Z,20.20
2018-09-07T04:48:31.975Z,20.25
2018-09-07T04:53:35.617Z,20.25
2018-09-07T04:58:40.593Z,20.23
2018-09-07T05:03:48.975Z,20.26
2018-09-07T05:08:52.014Z,20.29
2018-09-07T05:13:55.083Z,20.39
2018-09-07T05:18:58.123Z,20.45
2018-09-07T05:24:03.250Z,20.45
2018-09-07T05:29:06.554Z,20.46
2018-09-07T05:34:15.243Z,20.48
2018-09-07T05:39:19.185Z,20.49
2018-09-07T05:44:22.197Z,20.57
2018-09-07T05:49:25.206Z,20.70
2018-09-07T05:54:28.225Z,20.74
2018-09-07T05:59:31.933Z,20.78
2018-09-07T06:04:36.885Z,20.77
2018-09-07T06:09:45.999Z,20.76
2018-09-07T06:14:49.638Z,20.68
2018-09-07T06:19:52.623Z,20.71
2018-09-07T06:24:55.628Z,20.58
2018-09-07T06:29:58.669Z,20.49
2018-09-07T06:35:02.538Z,20.49
2018-09-07T06:40:06.791Z,20.58
2018-09-07T06:45:16.168Z,20.58
2018-09-07T06:50:19.711Z,20.72
2018-09-07T06:55:22.846Z,20.86
2018-09-07T07:00:25.859Z,21.00
2018-09-07T07:05:28.940Z,21.18
2018-09-07T07:10:33.926Z,21.39
2018-09-07T07:15:37.246Z,21.80
2018-09-07T07:20:48.630Z,22.38
2018-09-07T07:25:51.633Z,22.67
2018-09-07T07:30:54.662Z,22.39
2018-09-07T07:35:57.691Z,22.27
2018-09-07T07:41:00.702Z,22.17
2018-09-07T07:46:03.723Z,22.05
2018-09-07T07:51:06.777Z,22.10
2018-09-07T07:56:14.893Z,22.04
2018-09-07T08:01:21.124Z,21.87
2018-09-07T08:06:24.225Z,22.27
2018-09-07T08:11:27.236Z,22.44
2018-09-07T08:16:31.361Z,22.56
2018-09-07T08:21:36.935Z,22.65
2018-09-07T08:26:44.596Z,22.38
2018-09-07T08:31:50.575Z,22.36
2018-09-07T08:36:53.806Z,22.75
2018-09-07T08:41:56.906Z,23.14
2018-09-07T08:47:00.013Z,23.02
2018-09-07T08:52:03.142Z,23.39
2018-09-07T08:57:06.237Z,23.60
2018-09-07T09:02:17.710Z,24.00
2018-09-07T09:07:24.182Z,24.09
2018-09-07T09:12:27.256Z,23.87
2018-09-07T09:17:30.286Z,23.64
2018-09-07T09:22:33.406Z,23.35
2018-09-07T09:27:50.288Z,23.37
2018-09-07T09:32:56.662Z,23.50
2018-09-07T09:37:59.614Z,23.50
2018-09-07T09:43:02.718Z,23.73
2018-09-07T09:48:05.744Z,23.76
2018-09-07T09:53:19.599Z,24.04
2018-09-07T09:58:23.943Z,23.99
2018-09-07T10:03:32.785Z,24.08
2018-09-07T10:08:39.242Z,24.63
2018-09-07T10:13:47.493Z,25.25
2018-09-07T10:18:52.990Z,25.74
2018-09-07T10:23:56.010Z,26.14
2018-09-07T10:28:59.041Z,26.15
2018-09-07T10:34:02.133Z,25.95
2018-09-07T10:39:07.988Z,25.72
2018-09-07T10:44:17.645Z,25.61
2018-09-07T10:49:21.885Z,25.44
2018-09-07T10:54:26.722Z,25.38
2018-09-07T10:59:29.954Z,25.16
2018-09-07T11:04:33.115Z,25.53
2018-09-07T11:09:39.750Z,25.39
2018-09-07T11:14:46.802Z,24.95
2018-09-07T11:19:52.405Z,24.64
2018-09-07T11:24:56.825Z,24.13
2018-09-07T11:30:01.704Z,23.97
2018-09-07T11:35:05.826Z,23.85
2018-09-07T11:40:14.693Z,23.60
2018-09-07T11:45:19.882Z,23.83
2018-09-07T11:50:24.594Z,24.00
2018-09-07T11:55:28.852Z,23.82
2018-09-07T12:00:31.879Z,23.48
2018-09-07T12:05:35.042Z,23.66
2018-09-07T12:10:38.387Z,23.89
2018-09-07T12:15:45.006Z,23.76
2018-09-07T12:20:50.130Z,24.04
2018-09-07T12:25:53.298Z,24.68
2018-09-07T12:30:58.699Z,24.97
2018-09-07T12:36:05.580Z,25.00
2018-09-07T12:41:09.821Z,24.52
2018-09-07T12:46:12.964Z,24.31
2018-09-07T12:51:16.496Z,24.39
2018-09-07T12:56:23.498Z,24.53
2018-09-07T13:01:29.257Z,24.52
2018-09-07T13:06:35.317Z,24.53
2018-09-07T13:11:38.419Z,24.80
2018-09-07T13:16:42.601Z,25.53
2018-09-07T13:21:45.701Z,25.28
2018-09-07T13:26:48.817Z,25.19
2018-09-07T13:31:56.916Z,25.77
2018-09-07T13:37:02.226Z,25.72
2018-09-07T13:42:05.411Z,25.19
2018-09-07T13:47:08.523Z,24.72
2018-09-07T13:52:13.842Z,24.59
2018-09-07T13:57:17.161Z,24.18
2018-09-07T14:02:20.308Z,23.97
2018-09-07T14:07:23.482Z,23.78
2018-09-07T14:12:27.009Z,23.66
2018-09-07T14:17:30.937Z,24.17
2018-09-07T14:22:34.006Z,24.64
2018-09-07T14:27:37.062Z,24.48
2018-09-07T14:32:40.135Z,24.05
2018-09-07T14:37:44.623Z,24.07
2018-09-07T14:42:49.793Z,24.22
2018-09-07T14:47:53.703Z,24.33
2018-09-07T14:52:59.414Z,24.48
2018-09-07T14:58:04.055Z,24.65
2018-09-07T15:03:07.643Z,24.59
2018-09-07T15:08:12.118Z,24.35
2018-09-07T15:13:15.909Z,24.32
2018-09-07T15:18:19.986Z,24.14
2018-09-07T15:23:28.853Z,23.57
2018-09-07T15:28:34.635Z,23.56
2018-09-07T15:33:39.331Z,23.74
2018-09-07T15:38:42.432Z,23.73
2018-09-07T15:43:45.486Z,23.65
2018-09-07T15:48:48.595Z,23.62
2018-09-07T15:54:01.294Z,23.69
2018-09-07T15:59:06.394Z,23.73
2018-09-07T16:04:09.819Z,23.76
2018-09-07T16:09:12.850Z,23.70
2018-09-07T16:14:15.909Z,23.57
2018-09-07T16:19:18.956Z,23.60
2018-09-07T16:24:22.006Z,23.53
2018-09-07T16:29:29.704Z,23.34
2018-09-07T16:34:34.854Z,23.04
2018-09-07T16:39:38.555Z,22.72
2018-09-07T16:44:41.698Z,22.49
2018-09-07T16:49:44.754Z,22.27
2018-09-07T16:54:47.782Z,22.06
2018-09-07T16:59:50.879Z,21.90
2018-09-07T17:05:00.793Z,21.74
2018-09-07T17:10:06.907Z,21.50
2018-09-07T17:15:10.034Z,21.46
2018-09-07T17:20:13.070Z,21.33
2018-09-07T17:25:16.140Z,21.32
2018-09-07T17:30:19.270Z,21.27
2018-09-07T17:35:22.490Z,21.21
2018-09-07T17:40:29.097Z,21.12
2018-09-07T17:45:33.303Z,20.90
2018-09-07T17:50:37.095Z,20.80
2018-09-07T17:55:40.200Z,20.65
2018-09-07T18:00:43.246Z,20.53
2018-09-07T18:05:49.690Z,20.34
2018-09-07T18:10:54.961Z,20.17
2018-09-07T18:15:59.201Z,20.00
2018-09-07T18:21:04.926Z,19.80
2018-09-07T18:26:09.640Z,19.67
2018-09-07T18:31:12.653Z,19.60
2018-09-07T18:36:17.838Z,19.52
2018-09-07T18:41:26.655Z,19.42
2018-09-07T18:46:34.458Z,19.37
2018-09-07T18:51:40.259Z,19.33
2018-09-07T18:56:45.391Z,19.27
2018-09-07T19:01:49.595Z,19.18
2018-09-07T19:06:54.306Z,19.07
2018-09-07T19:11:59.431Z,18.93
2018-09-07T19:17:03.392Z,18.76
2018-09-07T19:22:06.414Z,18.68
2018-09-07T19:27:09.785Z,18.64
2018-09-07T19:32:12.860Z,18.60
2018-09-07T19:37:16.634Z,18.50
2018-09-07T19:42:22.046Z,18.41
2018-09-07T19:47:26.640Z,18.30
2018-09-07T19:52:30.049Z,18.26
2018-09-07T19:57:33.961Z,18.21
2018-09-07T20:02:36.990Z,18.10
2018-09-07T20:07:40.094Z,17.98
2018-09-07T20:12:43.174Z,17.65
2018-09-07T20:17:47.682Z,17.39
2018-09-07T20:22:54.134Z,17.38
2018-09-07T20:27:59.272Z,17.37
2018-09-07T20:33:03.262Z,17.29
2018-09-07T20:38:06.291Z,17.25
2018-09-07T20:43:09.358Z,17.24
2018-09-07T20:48:12.543Z,17.17
2018-09-07T20:53:16.362Z,17.13
2018-09-07T20:58:22.471Z,17.10
2018-09-07T21:03:27.751Z,17.13
2018-09-07T21:08:31.118Z,17.11
2018-09-07T21:13:34.654Z,17.09
2018-09-07T21:18:37.701Z,17.07
2018-09-07T21:23:40.750Z,17.00
2018-09-07T21:28:45.067Z,17.02
2018-09-07T21:33:50.841Z,16.96
2018-09-07T21:38:58.423Z,16.88
2018-09-07T21:44:02.800Z,16.79
2018-09-07T21:49:07.926Z,16.73
2018-09-07T21:54:11.000Z,16.68
2018-09-07T21:59:14.056Z,16.66
2018-09-07T22:04:17.095Z,16.61
2018-09-07T22:09:22.975Z,16.60
2018-09-07T22:14:27.525Z,16.53
2018-09-07T22:19:31.731Z,16.45
2018-09-07T22:24:34.894Z,16.41
2018-09-07T22:29:38.187Z,16.36
2018-09-07T22:34:41.616Z,16.33
2018-09-07T22:39:44.715Z,16.25
2018-09-07T22:44:48.000Z,16.26
2018-09-07T22:49:54.258Z,16.25
2018-09-07T22:54:58.483Z,16.23
2018-09-07T23:00:02.530Z,16.21
2018-09-07T23:05:05.656Z,16.19
2018-09-07T23:10:08.842Z,16.17
2018-09-07T23:15:11.873Z,16.17
2018-09-07T23:20:14.928Z,16.14
2018-09-07T23:25:19.310Z,16.15
2018-09-07T23:30:25.563Z,16.12
2018-09-07T23:35:30.079Z,16.15
2018-09-07T23:40:33.805Z,16.26
2018-09-07T23:45:36.869Z,16.45
2018-09-07T23:50:39.913Z,16.68
2018-09-07T23:55:42.945Z,16.86
